sensor_id;sensor_type;location;lat;lon;timestamp;temperature;humidity
42979;DHT22;28616;44.746;19.678;2022-07-10T00:00:37;17.50;99.90
42979;DHT22;28616;44.746;19.678;2022-07-10T00:03:03;17.50;99.90
42979;DHT22;28616;44.746;19.678;2022-07-10T00:05:30;17.50;99.90
42979;DHT22;28616;44.746;19.678;2022-07-10T00:07:56;17.40;99.90
42979;DHT22;28616;44.746;19.678;2022-07-10T00:10:22;17.40;99.90
42979;DHT22;28616;44.746;19.678;2022-07-10T00:12:50;17.40;99.90
42979;DHT22;28616;44.746;19.678;2022-07-10T00:15:18;17.30;99.90
42979;DHT22;28616;44.746;19.678;2022-07-10T00:17:44;17.30;99.90
42979;DHT22;28616;44.746;19.678;2022-07-10T00:20:11;17.20;99.90
42979;DHT22;28616;44.746;19.678;2022-07-10T00:22:37;17.20;99.90
42979;DHT22;28616;44.746;19.678;2022-07-10T00:25:04;17.20;99.90
42979;DHT22;28616;44.746;19.678;2022-07-10T00:27:31;17.20;99.90
42979;DHT22;28616;44.746;19.678;2022-07-10T00:29:57;17.20;99.90
42979;DHT22;28616;44.746;19.678;2022-07-10T00:32:23;17.10;99.90
42979;DHT22;28616;44.746;19.678;2022-07-10T00:34:49;17.10;99.90
42979;DHT22;28616;44.746;19.678;2022-07-10T00:37:15;17.10;99.90
42979;DHT22;28616;44.746;19.678;2022-07-10T00:39:41;17.10;99.90
42979;DHT22;28616;44.746;19.678;2022-07-10T00:42:12;17.00;99.90
42979;DHT22;28616;44.746;19.678;2022-07-10T00:44:39;17.00;99.90
42979;DHT22;28616;44.746;19.678;2022-07-10T00:47:06;16.90;99.90
42979;DHT22;28616;44.746;19.678;2022-07-10T00:49:36;16.90;99.90
42979;DHT22;28616;44.746;19.678;2022-07-10T00:52:08;16.90;99.90
42979;DHT22;28616;44.746;19.678;2022-07-10T00:54:37;16.90;99.90
42979;DHT22;28616;44.746;19.678;2022-07-10T00:57:04;16.80;99.90
42979;DHT22;28616;44.746;19.678;2022-07-10T00:59:34;16.90;99.90
42979;DHT22;28616;44.746;19.678;2022-07-10T01:02:01;16.80;99.90
42979;DHT22;28616;44.746;19.678;2022-07-10T01:04:28;16.70;99.90
42979;DHT22;28616;44.746;19.678;2022-07-10T01:06:54;16.70;99.90
42979;DHT22;28616;44.746;19.678;2022-07-10T01:09:20;16.70;99.90
42979;DHT22;28616;44.746;19.678;2022-07-10T01:11:46;16.60;99.90
42979;DHT22;28616;44.746;19.678;2022-07-10T01:14:12;16.60;99.90
42979;DHT22;28616;44.746;19.678;2022-07-10T01:16:39;16.60;99.90
42979;DHT22;28616;44.746;19.678;2022-07-10T01:19:04;16.60;99.90
42979;DHT22;28616;44.746;19.678;2022-07-10T01:21:36;16.60;99.90
42979;DHT22;28616;44.746;19.678;2022-07-10T01:24:08;16.60;99.90
42979;DHT22;28616;44.746;19.678;2022-07-10T01:26:35;16.50;99.90
42979;DHT22;28616;44.746;19.678;2022-07-10T01:29:06;16.50;99.90
42979;DHT22;28616;44.746;19.678;2022-07-10T01:31:32;16.50;99.90
42979;DHT22;28616;44.746;19.678;2022-07-10T01:34:00;16.50;99.90
42979;DHT22;28616;44.746;19.678;2022-07-10T01:36:28;16.50;99.90
42979;DHT22;28616;44.746;19.678;2022-07-10T01:38:55;16.50;99.90
42979;DHT22;28616;44.746;19.678;2022-07-10T01:41:22;16.60;99.90
42979;DHT22;28616;44.746;19.678;2022-07-10T01:43:49;16.50;99.90
42979;DHT22;28616;44.746;19.678;2022-07-10T01:46:15;16.40;99.90
42979;DHT22;28616;44.746;19.678;2022-07-10T01:48:42;16.30;99.90
42979;DHT22;28616;44.746;19.678;2022-07-10T01:51:09;16.30;99.90
42979;DHT22;28616;44.746;19.678;2022-07-10T01:53:35;16.30;99.90
42979;DHT22;28616;44.746;19.678;2022-07-10T01:56:04;16.30;99.90
42979;DHT22;28616;44.746;19.678;2022-07-10T01:58:30;16.30;99.90
42979;DHT22;28616;44.746;19.678;2022-07-10T02:00:56;16.30;99.90
42979;DHT22;28616;44.746;19.678;2022-07-10T02:03:22;16.30;99.90
42979;DHT22;28616;44.746;19.678;2022-07-10T02:06:06;16.20;99.90
42979;DHT22;28616;44.746;19.678;2022-07-10T02:08:33;16.20;99.90
42979;DHT22;28616;44.746;19.678;2022-07-10T02:10:58;16.10;99.90
42979;DHT22;28616;44.746;19.678;2022-07-10T02:13:24;16.20;99.90
42979;DHT22;28616;44.746;19.678;2022-07-10T02:15:56;16.20;99.90
42979;DHT22;28616;44.746;19.678;2022-07-10T02:18:22;16.10;99.90
42979;DHT22;28616;44.746;19.678;2022-07-10T02:20:48;16.00;99.90
42979;DHT22;28616;44.746;19.678;2022-07-10T02:23:14;16.10;99.90
42979;DHT22;28616;44.746;19.678;2022-07-10T02:25:40;16.00;99.90
42979;DHT22;28616;44.746;19.678;2022-07-10T02:28:08;15.90;99.90
42979;DHT22;28616;44.746;19.678;2022-07-10T02:30:34;15.90;99.90
42979;DHT22;28616;44.746;19.678;2022-07-10T02:32:59;15.80;99.90
42979;DHT22;28616;44.746;19.678;2022-07-10T02:35:25;15.80;99.90
42979;DHT22;28616;44.746;19.678;2022-07-10T02:37:51;15.80;99.90
42979;DHT22;28616;44.746;19.678;2022-07-10T02:40:17;15.80;99.90
42979;DHT22;28616;44.746;19.678;2022-07-10T02:42:42;15.70;99.90
42979;DHT22;28616;44.746;19.678;2022-07-10T02:45:08;15.80;99.90
42979;DHT22;28616;44.746;19.678;2022-07-10T02:47:34;15.70;99.90
42979;DHT22;28616;44.746;19.678;2022-07-10T02:50:00;15.70;99.90
42979;DHT22;28616;44.746;19.678;2022-07-10T02:52:26;15.70;99.90
42979;DHT22;28616;44.746;19.678;2022-07-10T02:54:52;15.80;99.90
42979;DHT22;28616;44.746;19.678;2022-07-10T02:57:18;15.80;99.90
42979;DHT22;28616;44.746;19.678;2022-07-10T02:59:44;15.80;99.90
42979;DHT22;28616;44.746;19.678;2022-07-10T03:02:10;15.80;99.90
42979;DHT22;28616;44.746;19.678;2022-07-10T03:04:35;15.80;99.90
42979;DHT22;28616;44.746;19.678;2022-07-10T03:07:01;15.80;99.90
42979;DHT22;28616;44.746;19.678;2022-07-10T03:09:27;15.80;99.90
42979;DHT22;28616;44.746;19.678;2022-07-10T03:11:53;15.80;99.90
42979;DHT22;28616;44.746;19.678;2022-07-10T03:14:19;15.90;99.90
42979;DHT22;28616;44.746;19.678;2022-07-10T03:16:44;15.90;99.90
42979;DHT22;28616;44.746;19.678;2022-07-10T03:19:10;15.90;99.90
42979;DHT22;28616;44.746;19.678;2022-07-10T03:21:36;16.00;99.90
42979;DHT22;28616;44.746;19.678;2022-07-10T03:24:02;16.00;99.90
42979;DHT22;28616;44.746;19.678;2022-07-10T03:26:27;16.10;99.90
42979;DHT22;28616;44.746;19.678;2022-07-10T03:28:58;16.20;99.90
42979;DHT22;28616;44.746;19.678;2022-07-10T03:31:23;16.20;99.90
42979;DHT22;28616;44.746;19.678;2022-07-10T03:33:49;16.30;99.90
42979;DHT22;28616;44.746;19.678;2022-07-10T03:36:15;16.30;99.90
42979;DHT22;28616;44.746;19.678;2022-07-10T03:38:41;16.40;99.90
42979;DHT22;28616;44.746;19.678;2022-07-10T03:41:07;16.40;99.90
42979;DHT22;28616;44.746;19.678;2022-07-10T03:43:33;16.50;99.90
42979;DHT22;28616;44.746;19.678;2022-07-10T03:45:58;16.50;99.90
42979;DHT22;28616;44.746;19.678;2022-07-10T03:48:24;16.60;99.90
42979;DHT22;28616;44.746;19.678;2022-07-10T03:50:51;16.60;99.90
42979;DHT22;28616;44.746;19.678;2022-07-10T03:53:17;16.70;99.90
42979;DHT22;28616;44.746;19.678;2022-07-10T03:55:43;16.80;99.90
42979;DHT22;28616;44.746;19.678;2022-07-10T03:58:09;16.80;99.90
42979;DHT22;28616;44.746;19.678;2022-07-10T04:00:35;16.90;99.90
42979;DHT22;28616;44.746;19.678;2022-07-10T04:03:07;17.00;99.90
42979;DHT22;28616;44.746;19.678;2022-07-10T04:05:33;17.00;99.90
42979;DHT22;28616;44.746;19.678;2022-07-10T04:08:01;17.10;99.90
42979;DHT22;28616;44.746;19.678;2022-07-10T04:10:28;17.20;99.90
42979;DHT22;28616;44.746;19.678;2022-07-10T04:12:55;17.20;99.90
42979;DHT22;28616;44.746;19.678;2022-07-10T04:15:21;17.30;99.90
42979;DHT22;28616;44.746;19.678;2022-07-10T04:17:48;17.30;99.90
42979;DHT22;28616;44.746;19.678;2022-07-10T04:20:14;17.30;99.90
42979;DHT22;28616;44.746;19.678;2022-07-10T04:22:40;17.40;99.90
42979;DHT22;28616;44.746;19.678;2022-07-10T04:25:07;17.50;99.90
42979;DHT22;28616;44.746;19.678;2022-07-10T04:27:33;17.50;99.90
42979;DHT22;28616;44.746;19.678;2022-07-10T04:29:59;17.60;99.90
42979;DHT22;28616;44.746;19.678;2022-07-10T04:32:25;17.60;99.90
42979;DHT22;28616;44.746;19.678;2022-07-10T04:34:51;17.70;99.90
42979;DHT22;28616;44.746;19.678;2022-07-10T04:37:16;17.70;99.90
42979;DHT22;28616;44.746;19.678;2022-07-10T04:39:42;17.80;99.90
42979;DHT22;28616;44.746;19.678;2022-07-10T04:42:08;17.90;99.90
42979;DHT22;28616;44.746;19.678;2022-07-10T04:44:35;18.00;99.90
42979;DHT22;28616;44.746;19.678;2022-07-10T04:47:02;18.00;99.90
42979;DHT22;28616;44.746;19.678;2022-07-10T04:49:28;18.10;99.90
42979;DHT22;28616;44.746;19.678;2022-07-10T04:51:55;18.10;99.90
42979;DHT22;28616;44.746;19.678;2022-07-10T04:54:22;18.20;99.90
42979;DHT22;28616;44.746;19.678;2022-07-10T04:56:48;18.20;99.90
42979;DHT22;28616;44.746;19.678;2022-07-10T04:59:14;18.30;99.90
42979;DHT22;28616;44.746;19.678;2022-07-10T05:01:40;18.40;99.90
42979;DHT22;28616;44.746;19.678;2022-07-10T05:04:06;18.50;99.90
42979;DHT22;28616;44.746;19.678;2022-07-10T05:06:32;18.50;99.90
42979;DHT22;28616;44.746;19.678;2022-07-10T05:08:58;18.60;99.90
42979;DHT22;28616;44.746;19.678;2022-07-10T05:11:25;18.60;99.90
42979;DHT22;28616;44.746;19.678;2022-07-10T05:13:51;18.60;99.90
42979;DHT22;28616;44.746;19.678;2022-07-10T05:16:18;18.70;99.90
42979;DHT22;28616;44.746;19.678;2022-07-10T05:18:56;18.80;99.90
42979;DHT22;28616;44.746;19.678;2022-07-10T05:21:24;18.80;99.90
42979;DHT22;28616;44.746;19.678;2022-07-10T05:23:50;18.90;99.90
42979;DHT22;28616;44.746;19.678;2022-07-10T05:26:16;19.00;99.90
42979;DHT22;28616;44.746;19.678;2022-07-10T05:28:42;18.90;99.90
42979;DHT22;28616;44.746;19.678;2022-07-10T05:31:08;19.00;99.90
42979;DHT22;28616;44.746;19.678;2022-07-10T05:33:33;19.00;99.90
42979;DHT22;28616;44.746;19.678;2022-07-10T05:35:59;19.10;99.90
42979;DHT22;28616;44.746;19.678;2022-07-10T05:38:25;19.20;99.90
42979;DHT22;28616;44.746;19.678;2022-07-10T05:40:51;19.30;99.90
42979;DHT22;28616;44.746;19.678;2022-07-10T05:43:19;19.40;99.90
42979;DHT22;28616;44.746;19.678;2022-07-10T05:45:44;19.50;99.90
42979;DHT22;28616;44.746;19.678;2022-07-10T05:48:10;19.40;99.90
42979;DHT22;28616;44.746;19.678;2022-07-10T05:50:36;19.40;99.90
42979;DHT22;28616;44.746;19.678;2022-07-10T05:53:02;19.30;99.90
42979;DHT22;28616;44.746;19.678;2022-07-10T05:55:27;19.20;99.90
42979;DHT22;28616;44.746;19.678;2022-07-10T05:57:53;19.30;99.90
42979;DHT22;28616;44.746;19.678;2022-07-10T06:00:20;19.50;99.90
42979;DHT22;28616;44.746;19.678;2022-07-10T06:02:46;19.70;99.90
42979;DHT22;28616;44.746;19.678;2022-07-10T06:05:11;19.90;99.90
42979;DHT22;28616;44.746;19.678;2022-07-10T06:07:37;20.00;99.90
42979;DHT22;28616;44.746;19.678;2022-07-10T06:10:04;20.10;99.90
42979;DHT22;28616;44.746;19.678;2022-07-10T06:12:31;20.30;99.90
42979;DHT22;28616;44.746;19.678;2022-07-10T06:14:57;20.40;99.90
42979;DHT22;28616;44.746;19.678;2022-07-10T06:17:23;20.30;99.90
42979;DHT22;28616;44.746;19.678;2022-07-10T06:19:48;20.40;99.90
42979;DHT22;28616;44.746;19.678;2022-07-10T06:22:14;20.60;99.90
42979;DHT22;28616;44.746;19.678;2022-07-10T06:25:03;20.60;99.90
42979;DHT22;28616;44.746;19.678;2022-07-10T06:27:30;20.70;99.90
42979;DHT22;28616;44.746;19.678;2022-07-10T06:29:57;20.70;99.90
42979;DHT22;28616;44.746;19.678;2022-07-10T06:32:23;20.80;99.90
42979;DHT22;28616;44.746;19.678;2022-07-10T06:34:50;21.00;99.90
42979;DHT22;28616;44.746;19.678;2022-07-10T06:37:17;21.20;99.90
42979;DHT22;28616;44.746;19.678;2022-07-10T06:39:43;21.30;99.90
42979;DHT22;28616;44.746;19.678;2022-07-10T06:42:09;21.30;99.90
42979;DHT22;28616;44.746;19.678;2022-07-10T06:44:35;21.40;99.90
42979;DHT22;28616;44.746;19.678;2022-07-10T06:47:01;21.50;99.90
42979;DHT22;28616;44.746;19.678;2022-07-10T06:49:46;21.60;99.90
42979;DHT22;28616;44.746;19.678;2022-07-10T06:52:13;21.70;99.90
42979;DHT22;28616;44.746;19.678;2022-07-10T06:54:39;21.70;97.20
42979;DHT22;28616;44.746;19.678;2022-07-10T06:57:05;21.80;98.40
42979;DHT22;28616;44.746;19.678;2022-07-10T06:59:31;21.80;98.50
42979;DHT22;28616;44.746;19.678;2022-07-10T07:01:57;22.00;98.60
42979;DHT22;28616;44.746;19.678;2022-07-10T07:04:23;22.20;99.10
42979;DHT22;28616;44.746;19.678;2022-07-10T07:06:49;22.30;96.70
42979;DHT22;28616;44.746;19.678;2022-07-10T07:09:14;22.30;94.80
42979;DHT22;28616;44.746;19.678;2022-07-10T07:11:40;22.20;93.20
42979;DHT22;28616;44.746;19.678;2022-07-10T07:14:06;21.90;93.80
42979;DHT22;28616;44.746;19.678;2022-07-10T07:16:31;21.90;95.80
42979;DHT22;28616;44.746;19.678;2022-07-10T07:19:05;22.00;96.10
42979;DHT22;28616;44.746;19.678;2022-07-10T07:21:34;22.20;98.00
42979;DHT22;28616;44.746;19.678;2022-07-10T07:26:46;22.70;92.80
42979;DHT22;28616;44.746;19.678;2022-07-10T07:29:15;22.80;91.80
42979;DHT22;28616;44.746;19.678;2022-07-10T07:31:41;22.90;90.00
42979;DHT22;28616;44.746;19.678;2022-07-10T07:34:07;23.00;90.20
42979;DHT22;28616;44.746;19.678;2022-07-10T07:36:33;23.10;90.80
42979;DHT22;28616;44.746;19.678;2022-07-10T07:38:59;23.20;90.20
42979;DHT22;28616;44.746;19.678;2022-07-10T07:41:25;23.20;88.50
42979;DHT22;28616;44.746;19.678;2022-07-10T07:43:51;23.20;84.30
42979;DHT22;28616;44.746;19.678;2022-07-10T07:46:18;23.30;85.10
42979;DHT22;28616;44.746;19.678;2022-07-10T07:48:45;23.10;80.50
42979;DHT22;28616;44.746;19.678;2022-07-10T07:51:11;23.20;82.80
42979;DHT22;28616;44.746;19.678;2022-07-10T07:53:37;23.50;83.30
42979;DHT22;28616;44.746;19.678;2022-07-10T07:56:03;23.60;81.80
42979;DHT22;28616;44.746;19.678;2022-07-10T07:58:29;23.50;79.30
42979;DHT22;28616;44.746;19.678;2022-07-10T08:00:55;23.20;78.10
42979;DHT22;28616;44.746;19.678;2022-07-10T08:03:22;22.90;78.50
42979;DHT22;28616;44.746;19.678;2022-07-10T08:05:48;23.00;80.70
42979;DHT22;28616;44.746;19.678;2022-07-10T08:08:15;23.10;82.80
42979;DHT22;28616;44.746;19.678;2022-07-10T08:10:40;23.20;81.20
42979;DHT22;28616;44.746;19.678;2022-07-10T08:13:06;23.30;81.50
42979;DHT22;28616;44.746;19.678;2022-07-10T08:15:32;23.40;79.70
42979;DHT22;28616;44.746;19.678;2022-07-10T08:18:00;23.50;78.80
42979;DHT22;28616;44.746;19.678;2022-07-10T08:20:29;23.60;75.30
42979;DHT22;28616;44.746;19.678;2022-07-10T08:22:56;23.80;75.90
42979;DHT22;28616;44.746;19.678;2022-07-10T08:25:23;24.00;74.90
42979;DHT22;28616;44.746;19.678;2022-07-10T08:27:49;24.20;73.10
42979;DHT22;28616;44.746;19.678;2022-07-10T08:30:15;24.00;69.00
42979;DHT22;28616;44.746;19.678;2022-07-10T08:32:41;23.70;68.80
42979;DHT22;28616;44.746;19.678;2022-07-10T08:35:08;23.70;69.10
42979;DHT22;28616;44.746;19.678;2022-07-10T08:37:41;23.60;69.30
42979;DHT22;28616;44.746;19.678;2022-07-10T08:40:12;23.50;70.10
42979;DHT22;28616;44.746;19.678;2022-07-10T08:42:39;23.40;73.50
42979;DHT22;28616;44.746;19.678;2022-07-10T08:45:06;23.40;72.90
42979;DHT22;28616;44.746;19.678;2022-07-10T08:47:36;23.50;75.30
42979;DHT22;28616;44.746;19.678;2022-07-10T08:50:04;23.60;75.40
42979;DHT22;28616;44.746;19.678;2022-07-10T08:53:08;23.60;72.50
42979;DHT22;28616;44.746;19.678;2022-07-10T08:55:36;23.90;71.40
42979;DHT22;28616;44.746;19.678;2022-07-10T08:58:03;23.90;72.20
42979;DHT22;28616;44.746;19.678;2022-07-10T09:00:32;23.90;72.70
42979;DHT22;28616;44.746;19.678;2022-07-10T09:02:57;24.00;71.30
42979;DHT22;28616;44.746;19.678;2022-07-10T09:05:24;24.20;72.90
42979;DHT22;28616;44.746;19.678;2022-07-10T09:07:51;24.20;67.80
42979;DHT22;28616;44.746;19.678;2022-07-10T16:06:56;25.40;49.60
42979;DHT22;28616;44.746;19.678;2022-07-10T16:09:22;25.40;50.00
42979;DHT22;28616;44.746;19.678;2022-07-10T16:11:48;25.30;50.90
42979;DHT22;28616;44.746;19.678;2022-07-10T16:14:14;25.60;50.90
42979;DHT22;28616;44.746;19.678;2022-07-10T16:43:32;25.70;52.20
42979;DHT22;28616;44.746;19.678;2022-07-10T16:46:00;25.60;50.70
42979;DHT22;28616;44.746;19.678;2022-07-10T16:48:26;25.50;49.50
42979;DHT22;28616;44.746;19.678;2022-07-10T16:50:52;25.30;49.70
42979;DHT22;28616;44.746;19.678;2022-07-10T16:53:19;25.20;48.50
42979;DHT22;28616;44.746;19.678;2022-07-10T16:55:45;25.10;48.60
42979;DHT22;28616;44.746;19.678;2022-07-10T16:58:11;24.90;49.00
42979;DHT22;28616;44.746;19.678;2022-07-10T17:00:37;24.80;50.00
42979;DHT22;28616;44.746;19.678;2022-07-10T17:03:03;24.80;49.90
42979;DHT22;28616;44.746;19.678;2022-07-10T17:05:29;24.60;50.30
42979;DHT22;28616;44.746;19.678;2022-07-10T17:07:55;24.60;50.90
42979;DHT22;28616;44.746;19.678;2022-07-10T17:10:21;24.40;51.50
42979;DHT22;28616;44.746;19.678;2022-07-10T17:12:47;24.30;52.00
42979;DHT22;28616;44.746;19.678;2022-07-10T17:15:13;24.20;52.60
42979;DHT22;28616;44.746;19.678;2022-07-10T17:17:41;24.10;52.20
42979;DHT22;28616;44.746;19.678;2022-07-10T17:20:09;24.00;53.10
42979;DHT22;28616;44.746;19.678;2022-07-10T17:22:35;23.90;53.10
42979;DHT22;28616;44.746;19.678;2022-07-10T17:25:28;23.70;53.70
42979;DHT22;28616;44.746;19.678;2022-07-10T17:27:57;23.60;54.20
42979;DHT22;28616;44.746;19.678;2022-07-10T17:30:26;23.50;54.00
42979;DHT22;28616;44.746;19.678;2022-07-10T17:32:52;23.40;54.80
42979;DHT22;28616;44.746;19.678;2022-07-10T17:35:25;23.40;55.30
42979;DHT22;28616;44.746;19.678;2022-07-10T17:37:54;23.30;55.50
42979;DHT22;28616;44.746;19.678;2022-07-10T17:40:23;23.20;55.20
42979;DHT22;28616;44.746;19.678;2022-07-10T17:42:50;23.20;55.20
42979;DHT22;28616;44.746;19.678;2022-07-10T17:45:16;23.20;55.60
42979;DHT22;28616;44.746;19.678;2022-07-10T17:47:45;23.20;55.80
42979;DHT22;28616;44.746;19.678;2022-07-10T17:50:11;23.10;57.00
42979;DHT22;28616;44.746;19.678;2022-07-10T17:52:37;22.90;59.80
42979;DHT22;28616;44.746;19.678;2022-07-10T17:55:03;22.80;61.40
42979;DHT22;28616;44.746;19.678;2022-07-10T17:57:29;22.60;62.30
42979;DHT22;28616;44.746;19.678;2022-07-10T17:59:55;22.40;63.40
42979;DHT22;28616;44.746;19.678;2022-07-10T18:02:21;22.40;64.70
42979;DHT22;28616;44.746;19.678;2022-07-10T18:04:47;22.30;64.50
42979;DHT22;28616;44.746;19.678;2022-07-10T18:07:13;22.30;65.40
42979;DHT22;28616;44.746;19.678;2022-07-10T18:09:39;22.20;65.50
42979;DHT22;28616;44.746;19.678;2022-07-10T18:12:05;22.10;65.80
42979;DHT22;28616;44.746;19.678;2022-07-10T18:14:31;22.00;65.60
42979;DHT22;28616;44.746;19.678;2022-07-10T18:16:57;21.90;66.30
42979;DHT22;28616;44.746;19.678;2022-07-10T18:19:22;21.90;67.00
42979;DHT22;28616;44.746;19.678;2022-07-10T18:21:48;21.80;69.00
42979;DHT22;28616;44.746;19.678;2022-07-10T18:24:14;21.70;70.80
42979;DHT22;28616;44.746;19.678;2022-07-10T18:26:42;21.60;72.00
42979;DHT22;28616;44.746;19.678;2022-07-10T18:29:08;21.60;73.70
42979;DHT22;28616;44.746;19.678;2022-07-10T18:31:34;21.50;75.60
42979;DHT22;28616;44.746;19.678;2022-07-10T18:34:00;21.50;78.70
42979;DHT22;28616;44.746;19.678;2022-07-10T18:36:44;21.40;83.20
42979;DHT22;28616;44.746;19.678;2022-07-10T18:39:10;21.40;88.80
42979;DHT22;28616;44.746;19.678;2022-07-10T18:41:36;21.40;92.50
42979;DHT22;28616;44.746;19.678;2022-07-10T18:44:03;21.40;95.70
42979;DHT22;28616;44.746;19.678;2022-07-10T18:46:30;21.40;99.00
42979;DHT22;28616;44.746;19.678;2022-07-10T18:48:57;21.30;99.90
42979;DHT22;28616;44.746;19.678;2022-07-10T18:51:23;21.30;99.90
42979;DHT22;28616;44.746;19.678;2022-07-10T18:53:49;21.20;99.90
42979;DHT22;28616;44.746;19.678;2022-07-10T18:56:15;21.20;99.90
42979;DHT22;28616;44.746;19.678;2022-07-10T18:58:44;21.10;99.90
42979;DHT22;28616;44.746;19.678;2022-07-10T19:01:10;21.10;99.90
42979;DHT22;28616;44.746;19.678;2022-07-10T19:03:36;21.10;99.90
42979;DHT22;28616;44.746;19.678;2022-07-10T19:06:03;21.10;99.90
42979;DHT22;28616;44.746;19.678;2022-07-10T19:08:29;21.10;99.90
42979;DHT22;28616;44.746;19.678;2022-07-10T19:10:55;21.00;99.90
42979;DHT22;28616;44.746;19.678;2022-07-10T19:13:22;21.00;99.90
42979;DHT22;28616;44.746;19.678;2022-07-10T19:15:48;21.00;99.90
42979;DHT22;28616;44.746;19.678;2022-07-10T19:18:14;20.90;99.90
42979;DHT22;28616;44.746;19.678;2022-07-10T19:20:40;20.90;99.90
42979;DHT22;28616;44.746;19.678;2022-07-10T19:23:06;20.90;99.90
42979;DHT22;28616;44.746;19.678;2022-07-10T19:25:32;20.80;99.90
42979;DHT22;28616;44.746;19.678;2022-07-10T19:28:00;20.80;99.90
42979;DHT22;28616;44.746;19.678;2022-07-10T19:30:30;20.80;99.90
42979;DHT22;28616;44.746;19.678;2022-07-10T19:32:56;20.70;99.90
42979;DHT22;28616;44.746;19.678;2022-07-10T19:35:22;20.70;99.90
42979;DHT22;28616;44.746;19.678;2022-07-10T19:37:47;20.60;99.90
42979;DHT22;28616;44.746;19.678;2022-07-10T19:40:13;20.60;99.90
42979;DHT22;28616;44.746;19.678;2022-07-10T19:42:40;20.60;99.90
42979;DHT22;28616;44.746;19.678;2022-07-10T19:45:06;20.50;99.90
42979;DHT22;28616;44.746;19.678;2022-07-10T19:47:32;20.50;99.90
42979;DHT22;28616;44.746;19.678;2022-07-10T19:49:58;20.40;99.90
42979;DHT22;28616;44.746;19.678;2022-07-10T19:52:24;20.40;99.90
42979;DHT22;28616;44.746;19.678;2022-07-10T19:54:50;20.30;99.90
42979;DHT22;28616;44.746;19.678;2022-07-10T19:57:16;20.30;99.90
42979;DHT22;28616;44.746;19.678;2022-07-10T19:59:43;20.20;99.90
42979;DHT22;28616;44.746;19.678;2022-07-10T20:02:09;20.20;99.90
42979;DHT22;28616;44.746;19.678;2022-07-10T20:04:35;20.10;99.90
42979;DHT22;28616;44.746;19.678;2022-07-10T20:07:00;20.10;99.90
42979;DHT22;28616;44.746;19.678;2022-07-10T20:09:26;20.00;99.90
42979;DHT22;28616;44.746;19.678;2022-07-10T20:11:52;19.90;99.90
42979;DHT22;28616;44.746;19.678;2022-07-10T20:14:18;19.90;99.90
42979;DHT22;28616;44.746;19.678;2022-07-10T20:16:44;19.90;99.90
42979;DHT22;28616;44.746;19.678;2022-07-10T20:19:13;20.00;99.90
42979;DHT22;28616;44.746;19.678;2022-07-10T20:21:39;20.00;99.90
42979;DHT22;28616;44.746;19.678;2022-07-10T20:24:05;19.90;99.90
42979;DHT22;28616;44.746;19.678;2022-07-10T20:26:31;19.90;99.90
42979;DHT22;28616;44.746;19.678;2022-07-10T20:28:57;19.90;99.90
42979;DHT22;28616;44.746;19.678;2022-07-10T20:31:24;19.90;99.90
42979;DHT22;28616;44.746;19.678;2022-07-10T20:33:50;19.90;99.90
42979;DHT22;28616;44.746;19.678;2022-07-10T20:36:15;19.90;99.90
42979;DHT22;28616;44.746;19.678;2022-07-10T20:39:00;19.90;99.90
42979;DHT22;28616;44.746;19.678;2022-07-10T20:41:25;19.90;99.90
42979;DHT22;28616;44.746;19.678;2022-07-10T20:43:52;19.90;99.90
42979;DHT22;28616;44.746;19.678;2022-07-10T20:46:18;19.80;99.90
42979;DHT22;28616;44.746;19.678;2022-07-10T20:48:44;19.80;99.90
42979;DHT22;28616;44.746;19.678;2022-07-10T20:51:10;19.80;99.90
42979;DHT22;28616;44.746;19.678;2022-07-10T20:53:36;19.80;99.90
42979;DHT22;28616;44.746;19.678;2022-07-10T20:56:02;19.70;99.90
42979;DHT22;28616;44.746;19.678;2022-07-10T20:58:28;19.60;99.90
42979;DHT22;28616;44.746;19.678;2022-07-10T21:00:54;19.60;99.90
42979;DHT22;28616;44.746;19.678;2022-07-10T21:03:20;19.60;99.90
42979;DHT22;28616;44.746;19.678;2022-07-10T21:05:46;19.50;99.90
42979;DHT22;28616;44.746;19.678;2022-07-10T21:08:12;19.50;99.90
42979;DHT22;28616;44.746;19.678;2022-07-10T21:10:37;19.50;99.90
42979;DHT22;28616;44.746;19.678;2022-07-10T21:13:07;19.40;99.90
42979;DHT22;28616;44.746;19.678;2022-07-10T21:15:33;19.30;99.90
42979;DHT22;28616;44.746;19.678;2022-07-10T21:18:27;19.20;99.90
42979;DHT22;28616;44.746;19.678;2022-07-10T21:24:15;19.10;99.90
42979;DHT22;28616;44.746;19.678;2022-07-10T21:26:41;19.00;99.90
42979;DHT22;28616;44.746;19.678;2022-07-10T21:29:07;19.00;99.90
42979;DHT22;28616;44.746;19.678;2022-07-10T21:31:33;18.90;99.90
42979;DHT22;28616;44.746;19.678;2022-07-10T21:34:27;18.90;99.90
42979;DHT22;28616;44.746;19.678;2022-07-10T21:36:56;18.80;99.90
42979;DHT22;28616;44.746;19.678;2022-07-10T21:39:22;18.80;99.90
42979;DHT22;28616;44.746;19.678;2022-07-10T21:41:48;18.70;99.90
42979;DHT22;28616;44.746;19.678;2022-07-10T21:44:19;18.70;99.90
42979;DHT22;28616;44.746;19.678;2022-07-10T21:46:55;18.60;99.90
42979;DHT22;28616;44.746;19.678;2022-07-10T21:49:21;18.50;99.90
42979;DHT22;28616;44.746;19.678;2022-07-10T21:51:47;18.50;99.90
42979;DHT22;28616;44.746;19.678;2022-07-10T21:54:13;18.40;99.90
42979;DHT22;28616;44.746;19.678;2022-07-10T21:56:38;18.30;99.90
42979;DHT22;28616;44.746;19.678;2022-07-10T21:59:04;18.30;99.90
42979;DHT22;28616;44.746;19.678;2022-07-10T22:01:30;18.30;99.90
42979;DHT22;28616;44.746;19.678;2022-07-10T22:03:56;18.20;99.90
42979;DHT22;28616;44.746;19.678;2022-07-10T22:06:22;18.20;99.90
42979;DHT22;28616;44.746;19.678;2022-07-10T22:08:48;18.10;99.90
42979;DHT22;28616;44.746;19.678;2022-07-10T22:11:13;18.10;99.90
42979;DHT22;28616;44.746;19.678;2022-07-10T22:13:39;18.10;99.90
42979;DHT22;28616;44.746;19.678;2022-07-10T22:16:05;18.00;99.90
42979;DHT22;28616;44.746;19.678;2022-07-10T22:18:31;18.10;99.90
42979;DHT22;28616;44.746;19.678;2022-07-10T22:20:57;18.00;99.90
42979;DHT22;28616;44.746;19.678;2022-07-10T22:23:22;17.90;99.90
42979;DHT22;28616;44.746;19.678;2022-07-10T22:25:48;17.90;99.90
42979;DHT22;28616;44.746;19.678;2022-07-10T22:28:14;17.90;99.90
42979;DHT22;28616;44.746;19.678;2022-07-10T22:30:40;17.90;99.90
42979;DHT22;28616;44.746;19.678;2022-07-10T22:33:24;17.90;99.90
42979;DHT22;28616;44.746;19.678;2022-07-10T22:35:50;17.80;99.90
42979;DHT22;28616;44.746;19.678;2022-07-10T22:38:15;17.80;99.90
42979;DHT22;28616;44.746;19.678;2022-07-10T22:40:41;17.80;99.90
42979;DHT22;28616;44.746;19.678;2022-07-10T22:43:07;17.90;99.90